Latest Coastal Weather Observations for Frederick Reef

IDQ60701

Issued at 2:42 am EST Saturday 1 October 2016 (issued every 10 minutes, with the page automatically refreshed every 10 minutes)

About coastal observations | Map of coastal stations | Coastal observations for QLD | Marine services | Other Formats
Station Details ID: 200701 Name: FREDERICK REEF Lat: -20.94 Lon: 154.40 Height: 4.9 m
Data from the previous 72 hours. | See also: Recent months for locations in Queensland
Date/Time
EST
Temp
°C
Wind Pressure Rain since
9am
mm
Weather Cloud Vis
km
Sea
Height
m
Swell
Dir  Spd
kts
Gust
kts
hPa Trend Height
m
Period
s
Dir
01/02:30am 24.7 CALM 0 1 1011.6 - - - - - - - - -
01/02:00am 24.5 CALM 0 2 1011.6 - - - - - - - - -
01/01:30am 24.6 CALM 0 4 1011.8 - - - - - - - - -
01/01:00am 24.8 CALM 0 1 1011.9 - - - - - - - - -
01/12:30am 24.8 CALM 0 2 1012.1 - - - - - - - - -
01/12:00am 24.8 CALM 0 2 1012.2 - - - - - - - - -
 
Date/Time
EST
Temp
°C
Wind Pressure Rain since
9am
mm
Weather Cloud Vis
km
Sea
Height
m
Swell
Dir  Spd
kts
Gust
kts
hPa Trend Height
m
Period
s
Dir
30/11:30pm 24.8 CALM 0 2 1012.7 - - - - - - - - -
30/11:00pm 24.7 N 1 2 1012.8 - - - - - - - - -
30/10:30pm 25.0 N 1 4 1013.0 - - - - - - - - -
30/10:00pm 25.0 CALM 0 3 1013.0 - - - - - - - - -
30/09:30pm 24.8 CALM 0 3 1012.9 - - - - - - - - -
30/09:00pm 24.9 CALM 0 3 1012.9 - - - - - - - - -
30/08:30pm 24.8 CALM 0 4 1012.6 - - - - - - - - -
30/08:00pm 24.9 CALM 0 13 1012.5 - - - - - - - - -
30/07:30pm 24.9 NNW 1 3 1012.0 - - - - - - - - -
30/07:00pm 25.0 NNW 1 17 1011.7 - - - - - - - - -
30/06:30pm 24.9 N 1 5 1011.2 - - - - - - - - -
30/06:00pm 24.9 NNW 1 4 1011.2 - - - - - - - - -
30/05:30pm 24.8 NNW 15 17 1010.8 - - - - - - - - -
30/05:00pm 25.0 NNW 16 17 1010.7 - - - - - - - - -
30/04:30pm 24.9 NNW 14 16 1010.7 - - - - - - - - -
30/04:00pm 24.9 NNW 15 17 1010.6 - - - - - - - - -
30/03:30pm 24.9 NNW 15 17 1010.4 - - - - - - - - -
30/03:00pm 24.8 NNW 15 16 1010.3 - - - - - - - - -
30/02:30pm 25.0 NNW 16 17 1010.3 - - - - - - - - -
30/02:00pm 25.0 NNW 16 18 1010.4 - - - - - - - - -
30/01:30pm 25.3 NNW 16 18 1010.6 - - - - - - - - -
30/01:00pm 25.3 NNW 16 17 1010.7 - - - - - - - - -
30/12:30pm 25.2 N 15 17 1010.9 - - - - - - - - -
30/12:00pm 24.9 N 15 17 1011.2 - - - - - - - - -
30/11:30am 24.8 N 16 18 1011.4 - - - - - - - - -
30/11:00am 24.8 N 16 17 1011.8 - - - - - - - - -
30/10:30am 25.1 N 16 18 1011.9 - - - - - - - - -
30/10:00am 24.9 N 16 18 1012.2 - - - - - - - - -
30/09:30am 24.7 N 16 17 1012.1 - - - - - - - - -
30/09:00am 24.8 N 14 18 1012.2 - - - - - - - - -
30/08:30am 24.5 N 17 18 1012.1 - - - - - - - - -
30/08:00am 24.4 N 18 20 1012.1 - - - - - - - - -
30/07:30am 24.2 N 21 23 1011.3 - - - - - - - - -
30/07:00am 24.4 N 21 23 1010.9 - - - - - - - - -
30/06:30am 24.2 N 21 23 1010.2 - - - - - - - - -
30/06:00am 24.1 N 21 23 1010.2 - - - - - - - - -
30/05:30am 24.2 N 22 25 1009.6 - - - - - - - - -
30/05:00am 23.8 N 20 23 1009.9 - - - - - - - - -
30/04:30am 24.1 N 18 23 1009.9 - - - - - - - - -
30/04:00am 23.6 N 18 20 1009.9 - - - - - - - - -
30/03:30am 23.7 N 18 21 1009.8 - - - - - - - - -
30/03:21am 23.7 N 16 18 1009.8 - - - - - - - - -
30/03:00am 23.7 N 1 2 1010.2 - - - - - - - - -
30/02:30am 23.8 CALM 0 3 1010.6 - - - - - - - - -
30/02:00am 23.6 N 1 16 1010.8 - - - - - - - - -
30/01:30am 23.8 CALM 0 3 1010.7 - - - - - - - - -
30/01:00am 23.8 NNE 1 3 1010.8 - - - - - - - - -
30/12:30am 23.6 CALM 0 2 1011.7 - - - - - - - - -
30/12:00am 23.9 NNE 1 3 1011.7 - - - - - - - - -
 
Date/Time
EST
Temp
°C
Wind Pressure Rain since
9am
mm
Weather Cloud Vis
km
Sea
Height
m
Swell
Dir  Spd
kts
Gust
kts
hPa Trend Height
m
Period
s
Dir
29/11:30pm 23.9 NNE 1 3 1011.9 - - - - - - - - -
29/11:00pm 24.0 N 1 3 1012.0 - - - - - - - - -
29/10:30pm 23.7 N 1 3 1012.4 - - - - - - - - -
29/10:00pm 23.8 NNE 1 4 1012.4 - - - - - - - - -
29/09:30pm 23.8 NNE 1 2 1012.2 - - - - - - - - -
29/09:00pm 23.8 NNE 1 3 1012.5 - - - - - - - - -
29/08:30pm 23.8 CALM 0 3 1012.5 - - - - - - - - -
29/08:00pm 23.7 CALM 0 2 1012.5 - - - - - - - - -
29/07:30pm 23.7 CALM 0 3 1012.1 - - - - - - - - -
29/07:00pm 23.8 CALM 0 3 1011.8 - - - - - - - - -
29/06:30pm 23.7 CALM 0 3 1011.5 - - - - - - - - -
29/06:00pm 23.7 N 3 10 1011.1 - - - - - - - - -
29/05:30pm 23.8 N 7 11 1010.7 - - - - - - - - -
29/05:00pm 24.1 N 9 10 1010.6 - - - - - - - - -
29/04:30pm 24.3 N 8 10 1010.3 - - - - - - - - -
29/04:00pm 24.5 N 9 13 1010.0 - - - - - - - - -
29/03:30pm 24.3 N 10 12 1009.8 - - - - - - - - -
29/03:00pm 24.4 N 10 11 1009.9 - - - - - - - - -
29/02:30pm 24.4 N 10 13 1010.1 - - - - - - - - -
29/02:00pm 24.4 N 11 13 1010.1 - - - - - - - - -
29/01:30pm 24.1 N 12 14 1010.2 - - - - - - - - -
29/01:00pm 24.0 N 13 14 1010.5 - - - - - - - - -
29/12:30pm 24.1 N 11 14 1011.1 - - - - - - - - -
29/12:00pm 23.8 N 11 14 1011.2 - - - - - - - - -
29/11:30am 23.6 NNE 13 15 1011.1 - - - - - - - - -
29/11:00am 23.9 NNE 11 12 1011.8 - - - - - - - - -
29/10:30am 23.8 NNE 11 13 1012.4 - - - - - - - - -
29/10:00am 24.2 NNE 9 11 1012.7 - - - - - - - - -
29/09:30am 24.3 NNE 8 10 1013.0 - - - - - - - - -
29/09:00am 24.3 NNE 9 11 1013.2 - - - - - - - - -
29/08:30am 24.0 NE 8 10 1013.3 - - - - - - - - -
29/08:00am 24.3 WNW 6 8 1013.4 - - - - - - - - -
29/07:30am 24.2 NNE 1 3 1013.2 - - - - - - - - -
29/07:00am 24.0 NE 1 3 1013.0 - - - - - - - - -
29/06:30am 24.5 CALM 0 3 1013.1 - - - - - - - - -
29/06:00am 23.4 CALM 0 3 1012.9 - - - - - - - - -
29/05:30am 23.0 ENE 4 7 1012.4 - - - - - - - - -
29/05:00am 22.9 NE 8 10 1012.0 - - - - - - - - -
29/04:30am 22.9 CALM 0 3 1011.8 - - - - - - - - -
29/04:00am 23.0 CALM 0 3 1011.6 - - - - - - - - -
29/03:30am 23.0 CALM 0 2 1011.4 - - - - - - - - -
29/03:00am 23.0 CALM 0 3 1011.3 - - - - - - - - -
29/02:30am 23.0 CALM 0 2 1012.0 - - - - - - - - -
29/02:00am 23.1 CALM 0 2 1012.1 - - - - - - - - -
29/01:30am 23.2 CALM 0 2 1012.1 - - - - - - - - -
29/01:00am 23.1 CALM 0 2 1012.1 - - - - - - - - -
29/12:30am 23.5 E 1 3 1012.4 - - - - - - - - -
29/12:00am 23.3 CALM 0 2 1012.7 - - - - - - - - -
 
Date/Time
EST
Temp
°C
Wind Pressure Rain since
9am
mm
Weather Cloud Vis
km
Sea
Height
m
Swell
Dir  Spd
kts
Gust
kts
hPa Trend Height
m
Period
s
Dir
28/11:30pm 23.4 CALM 0 2 1012.9 - - - - - - - - -
28/11:00pm 23.4 CALM 0 2 1013.2 - - - - - - - - -
28/10:30pm 23.5 CALM 0 2 1013.4 - - - - - - - - -
28/10:00pm 23.6 CALM 0 2 1013.5 - - - - - - - - -
28/09:30pm 23.6 ESE 1 3 1013.8 - - - - - - - - -
28/09:00pm 23.6 CALM 0 2 1013.6 - - - - - - - - -
28/08:30pm 23.6 CALM 0 4 1013.6 - - - - - - - - -
28/08:00pm 23.6 CALM 0 2 1013.7 - - - - - - - - -
28/07:30pm 23.6 ESE 1 3 1013.2 - - - - - - - - -
28/07:00pm 23.6 CALM 0 3 1013.0 - - - - - - - - -
28/06:30pm 23.4 CALM 0 3 1012.5 - - - - - - - - -
28/06:00pm 23.5 SE 1 10 1012.4 - - - - - - - - -
28/05:30pm 23.3 ESE 1 3 1011.9 - - - - - - - - -
28/05:00pm 23.3 CALM 0 11 1011.8 - - - - - - - - -
28/04:30pm 23.4 SSE 11 13 1011.9 - - - - - - - - -
28/04:00pm 23.3 SE 11 14 1011.6 - - - - - - - - -
28/03:30pm 23.3 SSE 10 13 1011.7 - - - - - - - - -
28/03:00pm 23.4 SSE 11 11 1011.9 - - - - - - - - -
28/02:30pm 23.3 SSE 11 13 1012.2 - - - - - - - - -
28/02:00pm 23.4 SE 9 11 1012.4 - - - - - - - - -
28/01:30pm 23.6 SSE 10 12 1012.8 - - - - - - - - -
28/01:00pm 23.4 SSE 10 12 1013.1 - - - - - - - - -
28/12:30pm 23.4 SSE 10 13 1013.5 - - - - - - - - -
28/12:00pm 23.4 SSE 11 12 1013.7 - - - - - - - - -
28/11:30am 23.5 SSE 11 13 1014.0 - - - - - - - - -
28/11:00am 23.5 S 13 16 1014.5 - - - - - - - - -
28/10:30am 23.5 S 12 14 1014.6 - - - - - - - - -
28/10:00am 23.5 SSE 11 14 1014.9 - - - - - - - - -
28/09:30am 23.4 SSE 12 15 1014.8 - - - - - - - - -
28/09:00am 23.6 SSE 13 16 1014.8 - - - - - - - - -
28/08:30am 23.4 SSE 14 16 1014.7 - - - - - - - - -
28/08:00am 23.5 SSE 14 16 1014.8 - - - - - - - - -
28/07:30am 23.7 S 13 15 1014.6 - - - - - - - - -
28/07:00am 23.6 S 13 15 1014.4 - - - - - - - - -
28/06:30am 23.6 S 13 15 1014.0 - - - - - - - - -
28/06:00am 23.5 SSE 11 13 1013.5 - - - - - - - - -
28/05:30am 23.3 S 10 12 1013.2 - - - - - - - - -
28/05:00am 23.3 S 7 8 1013.0 - - - - - - - - -
28/04:30am 23.6 CALM 0 2 1012.6 - - - - - - - - -
28/04:00am 23.4 CALM 0 2 1012.4 - - - - - - - - -
28/03:30am 23.3 S 1 3 1012.2 - - - - - - - - -
28/03:00am 23.6 CALM 0 2 1012.3 - - - - - - - - -

Other Formats:

Comma delimited format used in spreadsheet applications
http://www.bom.gov.au/fwo/IDQ60701/IDQ60701.94393.axf

JavaScript Object Notation format (JSON) in row-major order
http://www.bom.gov.au/fwo/IDQ60701/IDQ60701.94393.json